createdAt,value
2017-10-09T00:00:04.845Z,22.28
2017-10-09T00:00:45.297Z,22.28
2017-10-09T00:01:25.748Z,22.23
2017-10-09T00:02:06.197Z,22.22
2017-10-09T00:02:46.645Z,22.33
2017-10-09T00:03:27.111Z,22.36
2017-10-09T00:04:07.570Z,22.36
2017-10-09T00:04:48.018Z,22.4
2017-10-09T00:05:28.475Z,22.37
2017-10-09T00:06:08.953Z,22.3
2017-10-09T00:06:49.406Z,22.34
2017-10-09T00:07:29.856Z,22.3
2017-10-09T00:08:10.326Z,22.31
2017-10-09T00:08:50.788Z,22.36
2017-10-09T00:09:31.245Z,22.38
2017-10-09T00:10:11.718Z,22.38
2017-10-09T00:10:52.181Z,22.37
2017-10-09T00:11:32.637Z,22.4
2017-10-09T00:12:13.090Z,22.31
2017-10-09T00:12:53.547Z,22.38
2017-10-09T00:13:34.005Z,22.34
2017-10-09T00:14:14.469Z,22.31
2017-10-09T00:14:54.928Z,22.36
2017-10-09T00:15:35.392Z,22.3
2017-10-09T00:16:15.853Z,22.36
2017-10-09T00:16:56.315Z,22.34
2017-10-09T00:17:36.770Z,22.33
2017-10-09T00:18:17.234Z,22.31
2017-10-09T00:18:57.695Z,22.3
2017-10-09T00:19:38.142Z,22.3
2017-10-09T00:20:18.595Z,22.37
2017-10-09T00:20:59.045Z,22.28
2017-10-09T00:21:39.497Z,22.28
2017-10-09T00:22:19.950Z,22.26
2017-10-09T00:23:00.406Z,22.26
2017-10-09T00:23:40.865Z,22.28
2017-10-09T00:24:21.317Z,22.25
2017-10-09T00:25:01.772Z,22.18
2017-10-09T00:25:42.224Z,22.15
2017-10-09T00:26:22.685Z,22.18
2017-10-09T00:27:03.144Z,22.22
2017-10-09T00:27:43.596Z,22.19
2017-10-09T00:28:24.056Z,22.23
2017-10-09T00:29:04.510Z,22.26
2017-10-09T00:29:44.969Z,22.22
2017-10-09T00:30:25.425Z,22.19
2017-10-09T00:31:05.880Z,22.18
2017-10-09T00:31:46.327Z,22.22
2017-10-09T00:32:26.790Z,22.21
2017-10-09T00:33:07.248Z,22.26
2017-10-09T00:33:47.702Z,22.18
2017-10-09T00:34:28.155Z,22.22
2017-10-09T00:35:08.618Z,22.25
2017-10-09T00:35:49.088Z,22.19
2017-10-09T00:36:29.538Z,22.22
2017-10-09T00:37:10.010Z,22.21
2017-10-09T00:37:50.469Z,22.22
2017-10-09T00:39:48.169Z,22.26
2017-10-09T00:40:28.616Z,22.16
2017-10-09T00:41:09.067Z,22.18
2017-10-09T00:41:49.522Z,22.16
2017-10-09T00:42:29.979Z,22.16
2017-10-09T00:43:10.437Z,22.25
2017-10-09T00:43:50.891Z,22.22
2017-10-09T00:44:31.339Z,22.25
2017-10-09T00:45:11.791Z,22.15
2017-10-09T00:45:52.272Z,22.25
2017-10-09T00:46:32.734Z,22.14
2017-10-09T00:47:13.176Z,22.22
2017-10-09T00:47:53.635Z,22.15
2017-10-09T00:48:34.088Z,22.19
2017-10-09T00:49:14.545Z,22.22
2017-10-09T00:49:55.002Z,22.26
2017-10-09T00:50:35.467Z,22.19
2017-10-09T00:51:15.918Z,22.18
2017-10-09T00:51:56.371Z,22.19
2017-10-09T00:52:36.819Z,22.19
2017-10-09T00:53:17.262Z,22.15
2017-10-09T00:53:57.722Z,22.16
2017-10-09T00:54:38.192Z,22.22
2017-10-09T00:55:18.642Z,22.15
2017-10-09T00:55:59.105Z,22.14
2017-10-09T00:56:39.563Z,22.12
2017-10-09T00:57:20.024Z,22.1
2017-10-09T00:58:00.477Z,22.19
2017-10-09T00:58:40.941Z,22.19
2017-10-09T00:59:21.395Z,22.14
2017-10-09T01:00:01.850Z,22.18
2017-10-09T01:00:42.294Z,22.19
2017-10-09T01:01:22.746Z,22.21
2017-10-09T01:02:03.208Z,22.18
2017-10-09T01:02:43.661Z,22.12
2017-10-09T01:03:24.113Z,22.08
2017-10-09T01:04:04.565Z,22.16
2017-10-09T01:04:45.015Z,22.14
2017-10-09T01:05:25.478Z,22.1
2017-10-09T01:06:05.930Z,22.03
2017-10-09T01:06:46.384Z,22.06
2017-10-09T01:07:26.840Z,22.18
2017-10-09T01:08:07.303Z,22.12
2017-10-09T01:08:47.759Z,22.04
2017-10-09T01:09:28.220Z,22.16
2017-10-09T01:10:08.664Z,22.12
2017-10-09T01:10:49.123Z,22.08
2017-10-09T01:11:29.572Z,22.16
2017-10-09T01:12:10.018Z,22.12
2017-10-09T01:12:50.469Z,22.1
2017-10-09T01:13:30.933Z,22.1
2017-10-09T01:14:11.372Z,22.1
2017-10-09T01:14:51.823Z,22.14
2017-10-09T01:15:32.276Z,22.18
2017-10-09T01:16:12.732Z,22.04
2017-10-09T01:16:53.190Z,22.16
2017-10-09T01:17:33.642Z,22.12
2017-10-09T01:18:14.095Z,22.07
2017-10-09T01:18:54.555Z,22.19
2017-10-09T01:19:35.002Z,22.12
2017-10-09T01:20:15.448Z,22.07
2017-10-09T01:20:55.925Z,22.08
2017-10-09T01:21:36.391Z,22.06
2017-10-09T01:22:16.848Z,22.15
2017-10-09T01:22:57.308Z,22.16
2017-10-09T01:23:37.745Z,22.04
2017-10-09T01:24:18.191Z,22.04
2017-10-09T01:24:58.638Z,22.06
2017-10-09T01:25:39.120Z,22.08
2017-10-09T01:26:19.536Z,22.06
2017-10-09T01:26:59.977Z,22.08
2017-10-09T01:27:40.437Z,21.99
2017-10-09T01:28:20.898Z,22.04
2017-10-09T01:29:01.345Z,22.06
2017-10-09T01:29:41.791Z,22
2017-10-09T01:30:22.229Z,21.99
2017-10-09T01:31:02.685Z,21.96
2017-10-09T01:31:43.139Z,22
2017-10-09T01:32:23.593Z,21.94
2017-10-09T01:33:04.039Z,21.99
2017-10-09T01:33:44.477Z,21.96
2017-10-09T01:34:24.932Z,21.97
2017-10-09T01:35:05.363Z,21.91
2017-10-09T01:35:45.817Z,21.99
2017-10-09T01:36:26.256Z,21.91
2017-10-09T01:37:06.706Z,21.96
2017-10-09T01:37:47.160Z,21.88
2017-10-09T01:38:27.616Z,21.96
2017-10-09T01:39:08.080Z,21.81
2017-10-09T01:39:48.535Z,21.99
2017-10-09T01:40:28.991Z,21.91
2017-10-09T01:41:09.446Z,21.96
2017-10-09T01:41:49.904Z,21.88
2017-10-09T01:42:30.346Z,21.99
2017-10-09T01:43:10.802Z,21.97
2017-10-09T01:43:51.260Z,21.88
2017-10-09T01:44:31.721Z,21.89
2017-10-09T01:45:12.174Z,21.94
2017-10-09T01:45:52.634Z,21.83
2017-10-09T01:46:33.081Z,21.89
2017-10-09T01:47:13.539Z,21.85
2017-10-09T01:47:53.990Z,21.89
2017-10-09T01:48:34.434Z,21.88
2017-10-09T01:49:14.886Z,21.91
2017-10-09T01:49:55.340Z,21.89
2017-10-09T01:50:35.789Z,21.84
2017-10-09T01:51:16.249Z,21.85
2017-10-09T01:51:56.705Z,21.88
2017-10-09T01:52:37.164Z,21.83
2017-10-09T01:53:17.637Z,21.84
2017-10-09T01:53:58.098Z,21.83
2017-10-09T01:54:38.544Z,21.89
2017-10-09T01:55:18.994Z,21.88
2017-10-09T01:55:59.441Z,21.84
2017-10-09T01:56:39.900Z,21.85
2017-10-09T01:57:20.356Z,21.85
2017-10-09T01:58:00.796Z,21.88
2017-10-09T01:58:41.251Z,21.88
2017-10-09T01:59:21.704Z,21.83
2017-10-09T02:00:02.149Z,21.83
2017-10-09T02:00:42.609Z,21.88
2017-10-09T02:01:23.073Z,21.81
2017-10-09T02:02:03.529Z,21.8
2017-10-09T02:02:43.976Z,21.8
2017-10-09T02:03:24.430Z,21.84
2017-10-09T02:04:04.891Z,21.88
2017-10-09T02:04:45.348Z,21.8
2017-10-09T02:05:25.798Z,21.83
2017-10-09T02:06:06.257Z,21.8
2017-10-09T02:06:46.714Z,21.83
2017-10-09T02:07:27.151Z,21.83
2017-10-09T02:08:07.605Z,21.83
2017-10-09T02:08:48.041Z,21.8
2017-10-09T02:09:28.502Z,21.81
2017-10-09T02:10:08.945Z,21.84
2017-10-09T02:10:49.399Z,21.8
2017-10-09T02:11:29.852Z,21.8
2017-10-09T02:12:10.308Z,21.8
2017-10-09T02:12:50.761Z,21.8
2017-10-09T02:13:31.220Z,21.88
2017-10-09T02:14:11.669Z,21.8
2017-10-09T02:14:52.117Z,21.77
2017-10-09T02:15:32.574Z,21.81
2017-10-09T02:16:13.025Z,21.81
2017-10-09T02:16:53.471Z,21.84
2017-10-09T02:17:33.916Z,21.74
2017-10-09T02:18:14.365Z,21.78
2017-10-09T02:18:54.812Z,21.8
2017-10-09T02:19:35.257Z,21.83
2017-10-09T02:20:15.707Z,21.78
2017-10-09T02:20:56.200Z,21.83
2017-10-09T02:21:36.633Z,21.78
2017-10-09T02:22:17.088Z,21.78
2017-10-09T02:22:57.533Z,21.7
2017-10-09T02:23:37.993Z,21.78
2017-10-09T02:24:18.453Z,21.8
2017-10-09T02:24:58.915Z,21.78
2017-10-09T02:25:39.377Z,21.75
2017-10-09T02:26:19.816Z,21.75
2017-10-09T02:27:00.290Z,21.75
2017-10-09T02:27:40.740Z,21.78
2017-10-09T02:28:21.198Z,21.78
2017-10-09T02:29:01.659Z,21.77
2017-10-09T02:29:42.102Z,21.83
2017-10-09T02:30:22.555Z,21.78
2017-10-09T02:31:03.006Z,21.77
2017-10-09T02:31:43.444Z,21.72
2017-10-09T02:32:23.895Z,21.8
2017-10-09T02:33:04.349Z,21.74
2017-10-09T02:33:44.804Z,21.81
2017-10-09T02:34:25.252Z,21.77
2017-10-09T02:35:05.717Z,21.77
2017-10-09T02:35:46.168Z,21.77
2017-10-09T02:36:26.627Z,21.78
2017-10-09T02:37:07.081Z,21.78
2017-10-09T02:37:47.541Z,21.78
2017-10-09T02:38:27.988Z,21.75
2017-10-09T02:39:08.439Z,21.78
2017-10-09T02:39:48.891Z,21.77
2017-10-09T02:40:29.344Z,21.78
2017-10-09T02:41:09.799Z,21.77
2017-10-09T02:41:50.235Z,21.81
2017-10-09T02:42:30.730Z,21.78
2017-10-09T02:43:11.168Z,21.78
2017-10-09T02:43:51.627Z,21.8
2017-10-09T02:44:32.075Z,21.77
2017-10-09T02:45:12.523Z,21.83
2017-10-09T02:45:52.975Z,21.78
2017-10-09T02:46:33.430Z,21.84
2017-10-09T02:47:13.881Z,21.81
2017-10-09T02:47:54.350Z,21.75
2017-10-09T02:48:34.799Z,21.77
2017-10-09T02:49:15.251Z,21.84
2017-10-09T02:49:55.710Z,21.85
2017-10-09T02:50:36.156Z,21.74
2017-10-09T02:51:16.664Z,21.77
2017-10-09T02:51:57.065Z,21.78
2017-10-09T02:52:37.516Z,21.75
2017-10-09T02:53:17.964Z,21.78
2017-10-09T02:53:58.415Z,21.78
2017-10-09T02:54:38.862Z,21.81
2017-10-09T02:55:19.311Z,21.81
2017-10-09T02:55:59.766Z,21.84
2017-10-09T02:56:40.228Z,21.78
2017-10-09T02:57:20.700Z,21.83
2017-10-09T02:58:01.152Z,21.84
2017-10-09T02:58:41.602Z,21.84
2017-10-09T02:59:22.054Z,21.89
2017-10-09T03:00:02.501Z,21.83
2017-10-09T03:00:42.966Z,21.89
2017-10-09T03:01:23.416Z,21.77
2017-10-09T03:02:03.865Z,21.88
2017-10-09T03:02:44.340Z,21.85
2017-10-09T03:03:24.779Z,21.88
2017-10-09T03:04:05.235Z,21.88
2017-10-09T03:04:45.692Z,21.85
2017-10-09T03:05:26.168Z,21.84
2017-10-09T03:06:06.613Z,21.8
2017-10-09T03:06:47.063Z,21.84
2017-10-09T03:07:27.537Z,21.74
2017-10-09T03:08:07.994Z,21.8
2017-10-09T03:08:48.452Z,21.85
2017-10-09T03:09:28.907Z,21.83
2017-10-09T03:10:09.360Z,21.88
2017-10-09T03:10:49.811Z,21.81
2017-10-09T03:11:30.264Z,21.85
2017-10-09T03:12:10.718Z,21.83
2017-10-09T03:12:51.179Z,21.78
2017-10-09T03:13:31.639Z,21.77
2017-10-09T03:14:12.098Z,21.74
2017-10-09T03:14:52.551Z,21.77
2017-10-09T03:15:33.012Z,21.75
2017-10-09T03:16:13.458Z,21.8
2017-10-09T03:16:53.909Z,21.8
2017-10-09T03:17:34.366Z,21.8
2017-10-09T03:18:14.819Z,21.8
2017-10-09T03:18:55.272Z,21.77
2017-10-09T03:19:35.730Z,21.74
2017-10-09T03:20:16.175Z,21.74
2017-10-09T03:20:56.623Z,21.8
2017-10-09T03:21:37.080Z,21.77
2017-10-09T03:22:17.533Z,21.74
2017-10-09T03:22:57.989Z,21.77
2017-10-09T03:23:38.443Z,21.77
2017-10-09T03:24:18.904Z,21.75
2017-10-09T03:24:59.352Z,21.81
2017-10-09T03:25:39.813Z,21.77
2017-10-09T03:26:20.266Z,21.81
2017-10-09T03:27:00.719Z,21.81
2017-10-09T03:27:41.167Z,21.81
2017-10-09T03:28:21.617Z,21.84
2017-10-09T03:29:02.073Z,21.81
2017-10-09T03:29:42.525Z,21.8
2017-10-09T03:30:22.990Z,21.81
2017-10-09T03:31:03.433Z,21.75
2017-10-09T03:31:43.910Z,21.84
2017-10-09T03:32:24.363Z,21.78
2017-10-09T03:33:04.813Z,21.88
2017-10-09T03:33:45.274Z,21.8
2017-10-09T03:34:25.739Z,21.8
2017-10-09T03:35:06.194Z,21.75
2017-10-09T03:35:46.647Z,21.78
2017-10-09T03:36:27.098Z,21.75
2017-10-09T03:37:07.573Z,21.78
2017-10-09T03:37:47.998Z,21.8
2017-10-09T03:38:28.446Z,21.81
2017-10-09T03:39:08.898Z,21.8
2017-10-09T03:39:49.333Z,21.78
2017-10-09T03:40:29.789Z,21.81
2017-10-09T03:41:10.245Z,21.84
2017-10-09T03:41:50.702Z,21.81
2017-10-09T03:42:31.149Z,21.83
2017-10-09T03:43:11.608Z,21.83
2017-10-09T03:43:52.066Z,21.85
2017-10-09T03:44:32.525Z,21.84
2017-10-09T03:45:12.973Z,21.89
2017-10-09T03:45:53.430Z,21.92
2017-10-09T03:46:33.882Z,21.92
2017-10-09T03:47:14.329Z,21.96
2017-10-09T03:47:54.778Z,21.89
2017-10-09T03:48:35.250Z,21.97
2017-10-09T03:49:15.705Z,21.94
2017-10-09T03:49:56.156Z,21.85
2017-10-09T03:50:36.609Z,21.97
2017-10-09T03:51:17.079Z,21.99
2017-10-09T03:51:57.531Z,21.91
2017-10-09T03:52:37.983Z,21.96
2017-10-09T03:53:18.432Z,21.92
2017-10-09T03:53:58.883Z,21.99
2017-10-09T03:54:39.329Z,21.94
2017-10-09T03:55:19.773Z,21.96
2017-10-09T03:56:00.226Z,22.01
2017-10-09T03:56:40.669Z,21.99
2017-10-09T03:57:21.127Z,21.89
2017-10-09T03:58:01.582Z,22
2017-10-09T03:58:42.044Z,21.97
2017-10-09T03:59:22.495Z,21.99
2017-10-09T04:00:02.950Z,21.92
2017-10-09T04:00:43.407Z,21.96
2017-10-09T04:01:23.855Z,21.99
2017-10-09T04:02:04.305Z,21.99
2017-10-09T04:02:44.763Z,21.96
2017-10-09T04:03:25.221Z,22.03
2017-10-09T04:04:05.689Z,22.03
2017-10-09T04:04:46.139Z,21.94
2017-10-09T04:05:26.598Z,22.03
2017-10-09T04:06:07.052Z,22.04
2017-10-09T04:06:47.560Z,22.12
2017-10-09T04:07:28.015Z,22.06
2017-10-09T04:08:08.485Z,22.1
2017-10-09T04:08:48.940Z,22.07
2017-10-09T04:09:29.382Z,22.07
2017-10-09T04:10:09.847Z,22.12
2017-10-09T04:10:50.311Z,22.04
2017-10-09T04:11:30.753Z,22.12
2017-10-09T04:12:11.205Z,22.18
2017-10-09T04:12:51.652Z,22.15
2017-10-09T04:13:32.104Z,22.23
2017-10-09T04:14:12.560Z,22.18
2017-10-09T04:14:53.018Z,22.19
2017-10-09T04:15:33.469Z,22.16
2017-10-09T04:16:13.924Z,22.23
2017-10-09T04:16:54.384Z,22.25
2017-10-09T04:17:34.844Z,22.16
2017-10-09T04:18:15.290Z,22.22
2017-10-09T04:18:55.739Z,22.21
2017-10-09T04:19:36.204Z,22.19
2017-10-09T04:20:16.655Z,22.28
2017-10-09T04:20:57.106Z,22.31
2017-10-09T04:21:37.557Z,22.28
2017-10-09T04:22:18.021Z,22.25
2017-10-09T04:22:58.495Z,22.28
2017-10-09T04:23:38.933Z,22.23
2017-10-09T04:24:19.385Z,22.3
2017-10-09T04:24:59.838Z,22.36
2017-10-09T04:25:40.284Z,22.3
2017-10-09T04:26:20.734Z,22.26
2017-10-09T04:27:01.185Z,22.3
2017-10-09T04:27:41.640Z,22.26
2017-10-09T04:28:22.106Z,22.33
2017-10-09T04:29:02.555Z,22.4
2017-10-09T04:29:43.007Z,22.23
2017-10-09T04:30:23.479Z,22.34
2017-10-09T04:31:03.941Z,22.33
2017-10-09T04:31:44.392Z,22.36
2017-10-09T04:32:24.846Z,22.34
2017-10-09T04:33:05.304Z,22.36
2017-10-09T04:33:45.765Z,22.36
2017-10-09T04:34:26.226Z,22.34
2017-10-09T04:35:06.686Z,22.31
2017-10-09T04:35:47.141Z,22.28
2017-10-09T04:36:27.592Z,22.31
2017-10-09T04:37:08.047Z,22.25
2017-10-09T04:37:48.512Z,22.3
2017-10-09T04:38:28.966Z,22.23
2017-10-09T04:39:09.422Z,22.26
2017-10-09T04:39:49.874Z,22.26
2017-10-09T04:40:30.329Z,22.25
2017-10-09T04:41:10.782Z,22.28
2017-10-09T04:41:51.227Z,22.3
2017-10-09T04:42:31.702Z,22.3
2017-10-09T04:43:12.144Z,22.3
2017-10-09T04:43:52.608Z,22.33
2017-10-09T04:44:33.066Z,22.33
2017-10-09T04:45:13.518Z,22.23
2017-10-09T04:45:53.986Z,22.36
2017-10-09T04:46:34.433Z,22.34
2017-10-09T04:47:14.903Z,22.33
2017-10-09T04:47:55.356Z,22.36
2017-10-09T04:48:35.833Z,22.36
2017-10-09T04:49:16.292Z,22.31
2017-10-09T04:49:56.748Z,22.25
2017-10-09T04:50:37.203Z,22.34
2017-10-09T04:51:17.654Z,22.37
2017-10-09T04:51:58.106Z,22.31
2017-10-09T04:52:38.567Z,22.34
2017-10-09T04:53:19.019Z,22.4
2017-10-09T04:53:59.471Z,22.38
2017-10-09T04:54:39.926Z,22.3
2017-10-09T04:55:20.380Z,22.37
2017-10-09T04:56:00.828Z,22.37
2017-10-09T04:56:41.278Z,22.37
2017-10-09T04:57:21.728Z,22.31
2017-10-09T04:58:02.180Z,22.36
2017-10-09T04:58:42.625Z,22.37
2017-10-09T04:59:23.078Z,22.36
2017-10-09T05:00:03.541Z,22.37
2017-10-09T05:00:43.993Z,22.34
2017-10-09T05:01:24.453Z,22.37
2017-10-09T05:02:04.905Z,22.28
2017-10-09T05:02:45.360Z,22.31
2017-10-09T05:03:25.811Z,22.26
2017-10-09T05:04:06.271Z,22.28
2017-10-09T05:04:46.734Z,22.28
2017-10-09T05:05:27.183Z,22.28
2017-10-09T05:06:07.631Z,22.31
2017-10-09T05:06:48.093Z,22.3
2017-10-09T05:07:28.568Z,22.3
2017-10-09T05:08:09.030Z,22.33
2017-10-09T05:08:49.490Z,22.26
2017-10-09T05:09:29.949Z,22.28
2017-10-09T05:10:10.407Z,22.28
2017-10-09T05:10:50.864Z,22.36
2017-10-09T05:11:31.318Z,22.25
2017-10-09T05:12:11.772Z,22.26
2017-10-09T05:12:52.228Z,22.26
2017-10-09T05:13:32.686Z,22.33
2017-10-09T05:14:13.144Z,22.36
2017-10-09T05:14:53.597Z,22.25
2017-10-09T05:15:34.049Z,22.26
2017-10-09T05:16:14.494Z,22.36
2017-10-09T05:16:54.959Z,22.26
2017-10-09T05:17:35.415Z,22.28
2017-10-09T05:18:15.870Z,22.26
2017-10-09T05:18:56.326Z,22.28
2017-10-09T05:19:36.782Z,22.28
2017-10-09T05:20:17.296Z,22.31
2017-10-09T05:20:57.704Z,22.25
2017-10-09T05:21:38.156Z,22.26
2017-10-09T05:22:18.610Z,22.18
2017-10-09T05:22:59.068Z,22.26
2017-10-09T05:23:39.524Z,22.19
2017-10-09T05:24:19.979Z,22.23
2017-10-09T05:25:00.432Z,22.23
2017-10-09T05:25:40.881Z,22.22
2017-10-09T05:26:21.322Z,22.25
2017-10-09T05:27:01.771Z,22.25
2017-10-09T05:27:42.227Z,22.19
2017-10-09T05:28:22.679Z,22.26
2017-10-09T05:29:03.142Z,22.28
2017-10-09T05:29:43.584Z,22.18
2017-10-09T05:30:24.029Z,22.19
2017-10-09T05:31:04.485Z,22.18
2017-10-09T05:31:44.933Z,22.26
2017-10-09T05:32:25.386Z,22.28
2017-10-09T05:33:05.846Z,22.31
2017-10-09T05:33:46.313Z,22.28
2017-10-09T05:34:26.772Z,22.26
2017-10-09T05:35:07.224Z,22.22
2017-10-09T05:35:47.711Z,22.3
2017-10-09T05:36:28.159Z,22.33
2017-10-09T05:37:08.620Z,22.31
2017-10-09T05:37:49.074Z,22.28
2017-10-09T05:38:29.540Z,22.25
2017-10-09T05:39:09.987Z,22.28
2017-10-09T05:39:50.451Z,22.25
2017-10-09T05:40:30.899Z,22.28
2017-10-09T05:41:11.361Z,22.23
2017-10-09T05:41:51.798Z,22.23
2017-10-09T05:42:32.249Z,22.25
2017-10-09T05:43:12.735Z,22.31
2017-10-09T05:43:53.190Z,22.26
2017-10-09T05:44:33.630Z,22.26
2017-10-09T05:45:14.077Z,22.23
2017-10-09T05:45:54.529Z,22.23
2017-10-09T05:46:34.978Z,22.26
2017-10-09T05:47:15.436Z,22.22
2017-10-09T05:47:55.898Z,22.26
2017-10-09T05:48:36.337Z,22.23
2017-10-09T05:49:16.799Z,22.23
2017-10-09T05:49:57.269Z,22.28
2017-10-09T05:50:37.724Z,22.19
2017-10-09T05:51:18.173Z,22.21
2017-10-09T05:51:58.622Z,22.18
2017-10-09T05:52:39.077Z,22.25
2017-10-09T05:53:19.532Z,22.21
2017-10-09T05:53:59.991Z,22.15
2017-10-09T05:54:40.434Z,22.16
2017-10-09T05:55:20.887Z,22.19
2017-10-09T05:56:01.351Z,22.16
2017-10-09T05:56:41.811Z,22.19
2017-10-09T05:57:22.259Z,22.25
2017-10-09T05:58:02.713Z,22.25
2017-10-09T05:58:43.169Z,22.25
2017-10-09T05:59:23.621Z,22.21
2017-10-09T06:00:04.084Z,22.15
2017-10-09T06:00:44.525Z,22.18
2017-10-09T06:01:24.980Z,22.22
2017-10-09T06:02:05.430Z,22.19
2017-10-09T06:02:45.885Z,22.22
2017-10-09T06:03:26.344Z,22.19
2017-10-09T06:04:06.790Z,22.16
2017-10-09T06:04:47.245Z,22.23
2017-10-09T06:05:27.703Z,22.23
2017-10-09T06:06:08.155Z,22.21
2017-10-09T06:06:48.610Z,22.25
2017-10-09T06:07:29.066Z,22.22
2017-10-09T06:08:09.525Z,22.28
2017-10-09T06:08:49.981Z,22.25
2017-10-09T06:09:30.436Z,22.28
2017-10-09T06:10:10.885Z,22.26
2017-10-09T06:10:51.333Z,22.28
2017-10-09T06:11:31.787Z,22.26
2017-10-09T06:12:12.243Z,22.28
2017-10-09T06:12:52.708Z,22.28
2017-10-09T06:13:33.158Z,22.26
2017-10-09T06:14:13.639Z,22.3
2017-10-09T06:14:54.428Z,22.25
2017-10-09T06:15:34.874Z,22.23
2017-10-09T06:16:15.326Z,22.23
2017-10-09T06:16:55.773Z,22.23
2017-10-09T06:17:36.237Z,22.28
2017-10-09T06:18:16.692Z,22.25
2017-10-09T06:18:57.149Z,22.25
2017-10-09T06:19:37.601Z,22.26
2017-10-09T06:20:18.035Z,22.31
2017-10-09T06:20:58.474Z,22.28
2017-10-09T06:21:38.930Z,22.22
2017-10-09T06:22:19.382Z,22.26
2017-10-09T06:22:59.843Z,22.3
2017-10-09T06:23:40.304Z,22.25
2017-10-09T06:24:20.757Z,22.3
2017-10-09T06:25:01.219Z,22.21
2017-10-09T06:25:41.680Z,22.25
2017-10-09T06:26:22.133Z,22.3
2017-10-09T06:27:02.561Z,22.28
2017-10-09T06:27:43.019Z,22.26
2017-10-09T06:28:23.474Z,22.3
2017-10-09T06:29:03.937Z,22.28
2017-10-09T06:29:44.393Z,22.25
2017-10-09T06:30:24.851Z,22.28
2017-10-09T06:31:05.302Z,22.22
2017-10-09T06:31:45.757Z,22.25
2017-10-09T06:32:26.203Z,22.3
2017-10-09T06:33:06.674Z,22.21
2017-10-09T06:33:47.122Z,22.19
2017-10-09T06:34:27.606Z,22.28
2017-10-09T06:35:08.059Z,22.28
2017-10-09T06:35:48.508Z,22.26
2017-10-09T06:36:28.964Z,22.18
2017-10-09T06:37:09.421Z,22.23
2017-10-09T06:37:49.876Z,22.19
2017-10-09T06:38:30.308Z,22.21
2017-10-09T06:39:10.757Z,22.19
2017-10-09T06:39:51.211Z,22.19
2017-10-09T06:40:31.665Z,22.22
2017-10-09T06:41:12.124Z,22.22
2017-10-09T06:41:52.583Z,22.19
2017-10-09T06:42:33.037Z,22.16
2017-10-09T06:43:13.498Z,22.22
2017-10-09T06:43:53.956Z,22.21
2017-10-09T06:44:34.404Z,22.16
2017-10-09T06:45:14.859Z,22.19
2017-10-09T06:45:55.345Z,22.19
2017-10-09T06:46:35.793Z,22.16
2017-10-09T06:47:16.246Z,22.21
2017-10-09T06:47:56.697Z,22.22
2017-10-09T06:48:37.148Z,22.26
2017-10-09T06:49:17.599Z,22.16
2017-10-09T06:49:58.053Z,22.23
2017-10-09T06:50:38.498Z,22.16
2017-10-09T06:51:18.947Z,22.23
2017-10-09T06:51:59.402Z,22.28
2017-10-09T06:52:39.858Z,22.25
2017-10-09T06:53:20.304Z,22.23
2017-10-09T06:54:00.760Z,22.28
2017-10-09T06:54:41.216Z,22.25
2017-10-09T06:55:21.667Z,22.28
2017-10-09T06:56:02.129Z,22.18
2017-10-09T06:56:42.565Z,22.3
2017-10-09T06:57:23.027Z,22.26
2017-10-09T06:58:03.481Z,22.25
2017-10-09T06:58:43.930Z,22.28
2017-10-09T06:59:24.383Z,22.26
2017-10-09T07:00:04.841Z,22.18
2017-10-09T07:00:45.298Z,22.3
2017-10-09T07:01:25.749Z,22.26
2017-10-09T07:02:06.207Z,22.31
2017-10-09T07:02:46.664Z,22.28
2017-10-09T07:03:27.118Z,22.23
2017-10-09T07:04:07.572Z,22.28
2017-10-09T07:04:48.030Z,22.28
2017-10-09T07:05:28.481Z,22.25
2017-10-09T07:06:08.951Z,22.28
2017-10-09T07:06:49.405Z,22.26
2017-10-09T07:07:29.864Z,22.26
2017-10-09T07:08:10.333Z,22.3
2017-10-09T07:08:50.794Z,22.3
2017-10-09T07:09:31.211Z,22.21
2017-10-09T07:10:11.670Z,22.21
2017-10-09T07:10:52.123Z,22.34
2017-10-09T07:11:32.574Z,22.31
2017-10-09T07:12:13.028Z,22.36
2017-10-09T07:12:53.479Z,22.37
2017-10-09T07:13:33.939Z,22.41
2017-10-09T07:14:14.392Z,22.46
2017-10-09T07:14:54.849Z,22.53
2017-10-09T07:15:35.301Z,22.55
2017-10-09T07:16:16.564Z,22.56
2017-10-09T07:16:57.016Z,22.51
2017-10-09T07:17:37.468Z,22.46
2017-10-09T07:18:17.926Z,22.49
2017-10-09T07:18:58.381Z,22.58
2017-10-09T07:19:38.837Z,22.65
2017-10-09T07:20:19.295Z,22.67
2017-10-09T07:20:59.747Z,22.58
2017-10-09T07:21:40.199Z,22.62
2017-10-09T07:22:20.662Z,22.71
2017-10-09T07:23:01.113Z,22.7
2017-10-09T07:23:41.560Z,22.71
2017-10-09T07:24:22.015Z,22.63
2017-10-09T07:25:02.471Z,22.71
2017-10-09T07:25:42.929Z,22.67
2017-10-09T07:26:23.382Z,22.74
2017-10-09T07:27:03.824Z,22.71
2017-10-09T07:27:44.275Z,22.76
2017-10-09T07:28:24.728Z,22.65
2017-10-09T07:29:05.190Z,22.73
2017-10-09T07:29:45.665Z,22.81
2017-10-09T07:30:26.097Z,22.71
2017-10-09T07:31:06.549Z,22.7
2017-10-09T07:31:46.998Z,22.74
2017-10-09T07:32:27.462Z,22.71
2017-10-09T07:33:07.915Z,22.74
2017-10-09T07:33:48.364Z,22.74
2017-10-09T07:34:28.814Z,22.76
2017-10-09T07:35:09.233Z,22.73
2017-10-09T07:35:49.686Z,22.7
2017-10-09T07:36:30.088Z,22.67
2017-10-09T07:37:10.560Z,22.74
2017-10-09T07:37:50.979Z,22.7
2017-10-09T07:38:31.386Z,22.63
2017-10-09T07:39:11.832Z,22.68
2017-10-09T07:39:52.269Z,22.65
2017-10-09T07:40:32.696Z,22.68
2017-10-09T07:41:13.127Z,22.68
2017-10-09T07:41:53.550Z,22.61
2017-10-09T07:42:33.967Z,22.55
2017-10-09T07:43:14.416Z,22.63
2017-10-09T07:43:54.821Z,22.53
2017-10-09T07:44:35.240Z,22.55
2017-10-09T07:45:15.647Z,22.41
2017-10-09T07:45:56.081Z,22.41
2017-10-09T07:46:36.468Z,22.56
2017-10-09T07:47:16.875Z,22.55
2017-10-09T07:47:57.316Z,22.47
2017-10-09T07:48:37.690Z,22.49
2017-10-09T07:49:18.146Z,22.56
2017-10-09T07:49:58.601Z,22.51
2017-10-09T07:50:39.060Z,22.49
2017-10-09T07:51:19.517Z,22.53
2017-10-09T07:51:59.973Z,22.47
2017-10-09T07:52:40.441Z,22.59
2017-10-09T07:53:20.888Z,22.58
2017-10-09T07:54:01.349Z,22.47
2017-10-09T07:54:41.794Z,22.56
2017-10-09T07:55:22.234Z,22.49
2017-10-09T07:56:02.692Z,22.56
2017-10-09T07:56:43.142Z,22.56
2017-10-09T07:57:23.615Z,22.51
2017-10-09T07:58:04.089Z,22.53
2017-10-09T07:58:44.540Z,22.52
2017-10-09T07:59:24.992Z,22.51
2017-10-09T08:00:05.441Z,22.55
2017-10-09T08:00:45.895Z,22.53
2017-10-09T08:01:26.337Z,22.43
2017-10-09T08:02:06.791Z,22.52
2017-10-09T08:02:47.247Z,22.44
2017-10-09T08:03:27.710Z,22.43
2017-10-09T08:04:08.160Z,22.38
2017-10-09T08:04:48.611Z,22.53
2017-10-09T08:05:29.047Z,22.53
2017-10-09T08:06:09.503Z,22.4
2017-10-09T08:06:49.946Z,22.41
2017-10-09T08:07:30.407Z,22.41
2017-10-09T08:08:10.866Z,22.49
2017-10-09T08:08:51.334Z,22.4
2017-10-09T08:09:31.783Z,22.46
2017-10-09T08:10:12.240Z,22.43
2017-10-09T08:10:52.687Z,22.4
2017-10-09T08:11:33.148Z,22.38
2017-10-09T08:12:13.613Z,22.51
2017-10-09T08:12:54.066Z,22.43
2017-10-09T08:13:34.516Z,22.49
2017-10-09T08:14:14.963Z,22.49
2017-10-09T08:14:55.404Z,22.37
2017-10-09T08:15:35.861Z,22.46
2017-10-09T08:16:16.310Z,22.52
2017-10-09T08:16:56.760Z,22.43
2017-10-09T08:17:37.227Z,22.46
2017-10-09T08:18:17.704Z,22.52
2017-10-09T08:18:58.157Z,22.53
2017-10-09T08:19:38.616Z,22.46
2017-10-09T08:20:19.050Z,22.4
2017-10-09T08:20:59.510Z,22.56
2017-10-09T08:21:39.970Z,22.38
2017-10-09T08:22:20.431Z,22.47
2017-10-09T08:23:00.911Z,22.52
2017-10-09T08:23:41.370Z,22.55
2017-10-09T08:24:21.835Z,22.53
2017-10-09T08:25:02.275Z,22.46
2017-10-09T08:25:42.737Z,22.52
2017-10-09T08:26:23.174Z,22.47
2017-10-09T08:27:03.631Z,22.56
2017-10-09T08:27:44.089Z,22.47
2017-10-09T08:28:24.569Z,22.51
2017-10-09T08:29:05.024Z,22.53
2017-10-09T08:29:45.470Z,22.47
2017-10-09T08:30:25.930Z,22.43
2017-10-09T08:31:06.387Z,22.47
2017-10-09T08:31:46.842Z,22.55
2017-10-09T08:32:27.296Z,22.46
2017-10-09T08:33:07.754Z,22.58
2017-10-09T08:33:48.344Z,22.4
2017-10-09T08:34:28.783Z,22.44
2017-10-09T08:35:09.234Z,22.41
2017-10-09T08:35:49.697Z,22.51
2017-10-09T08:36:30.159Z,22.55
2017-10-09T08:37:10.614Z,22.58
2017-10-09T08:37:51.073Z,22.49
2017-10-09T08:38:31.516Z,22.56
2017-10-09T08:39:11.958Z,22.49
2017-10-09T08:39:52.412Z,22.47
2017-10-09T08:40:32.867Z,22.51
2017-10-09T08:41:13.323Z,22.56
2017-10-09T08:41:53.762Z,22.58
2017-10-09T08:42:34.209Z,22.53
2017-10-09T08:43:14.667Z,22.52
2017-10-09T08:43:55.122Z,22.51